Værinformasjon

ENOV 270850Z VRB01KT CAVOK 01/00 Q0991 RMK WIND 2175FT 14012KT


ENSD 270920Z 07001KT 9999 FEW058 05/03 Q0992 RMK WIND 1138FT 07005KT


ENAL 270920Z 16006KT CAVOK 09/03 Q0991


ENML 270920Z VRB02KT CAVOK 06/02 Q0992